Airfield :
LOGIN :

Register | Disclaimer

   EN    FR    IT 

 










Legend :    VFR   Marginal VFR   IFR   Intensive IFR   Very Intensive IFR
Visi :
Ceiling :
>= 8 km
>= 3000ft
5 to 8 km
1000 to 3000 ft
1500m to 5 km
500 to 1000 ft
800 to 1500m
200 to 500 ft
< 800m
< 200 ft
Symbols :   Thunderstorms  Fog  Heavy snow  Heavy precipitations  Wind > 20 kt
SIGMETs :     Misc.  Thunderstorms  Icing  Turbulence  Mountain Waves  Volcanic Ashes







- Airport Elevation : 0 ft


ETEB - Ansbach Army Heliport

CURRENT METAR :
  • 190158Z AUTO 23010KT 9999 -SN OVC007 01/01 A2994 RMK AO2 SLP172 T00080007 $

EXPIRED METARs :
  • 190148Z AUTO 23010KT 9999 -SN OVC007 00/00 A2994 RMK AO2 SLP172
  • 190135Z AUTO 23010KT 9999 -SN OVC008 00/00 A2995 RMK AO2 SLP176 $
  • 190125Z AUTO 23009KT 5000 -SN BR OVC007 00/00 A2995 RMK AO2 CIG 007V009 SLP176 $
  • 190118Z AUTO 23009KT 4000 -SN BR OVC009 00/00 A2996 RMK AO2 VIS 4000V8000 CIG 009V011 SLP179 $
  • 190058Z AUTO 23014KT 9999 -SN BKN014 02/00 A2996 RMK AO2 DZB33E45RAB45E57SNB57 SLP177 $
  • 190033Z AUTO 25015G19KT 9999 -DZ BKN019 03/00 A2997 RMK AO2 DZB33 SLP178 $
  • 182358Z AUTO 24016G21KT 9999 BKN021 OVC031 03/M01 A2997 RMK AO2 CIG 021V031 BKN V SCT SLP178 T00291008 10029 20025 57021 $

TAF TAF ETEB
Valid from the 18 at 13:00 until the 19 at 19:00 UTC


181303Z 1813/1919 26012KT 9999 BKN020 OVC040 620206 QNH3004INS
BECMG 1819/1820 26015G25KT 9999 BKN015 OVC030 620206 510003 QNH2999INS
BECMG 1823/1824 25010G15KT 6000 -RASN BKN010 OVC030 620206 QNH2994INS
BECMG 1902/1903 25012KT 6000 -RASN BKN010 OVC030 620206 QNH2990INS
BECMG 1908/1909 30012G18KT 9999 NSW SCT015 BKN020 620206 QNH2995INS TX06/1814Z TN01/1901Z LAST NO AMDS AFT 1814 NEXT 1921
No reported NOTAMs for that airfield.



MET'MAP, your aeronautical weather chart ! - Copyright ORBIFLY December 2007 - Disclaimer

ORBIFLY MET'MAP TEAM :

Programming & Development : Alexandra Zaïnal
Concept & Development : Baudouin d'Aumeries
Co-Development & Prog : Marc-Olivier Méhu
Technical & hardware support : Manuel Goepfert

Contact : metmap@orbifly.com




SOURCES & CREDITS :

   NOAA